createdAt,value
2019-04-11T00:02:26.905Z,100.00
2019-04-11T00:07:30.122Z,100.00
2019-04-11T00:12:32.655Z,100.00
2019-04-11T00:17:36.231Z,100.00
2019-04-11T00:22:38.538Z,100.00
2019-04-11T00:27:43.449Z,100.00
2019-04-11T00:32:47.604Z,100.00
2019-04-11T00:37:49.621Z,100.00
2019-04-11T00:42:52.979Z,100.00
2019-04-11T00:47:55.363Z,100.00
2019-04-11T00:52:58.015Z,100.00
2019-04-11T00:58:01.295Z,100.00
2019-04-11T01:03:04.928Z,100.00
2019-04-11T01:08:07.879Z,100.00
2019-04-11T01:13:09.894Z,100.00
2019-04-11T01:18:11.953Z,100.00
2019-04-11T01:23:15.160Z,100.00
2019-04-11T01:28:20.712Z,100.00
2019-04-11T01:33:24.052Z,100.00
2019-04-11T01:38:28.270Z,100.00
2019-04-11T01:43:30.739Z,100.00
2019-04-11T01:48:41.944Z,100.00
2019-04-11T01:53:44.741Z,100.00
2019-04-11T01:58:49.444Z,100.00
2019-04-11T02:04:14.043Z,100.00
2019-04-11T02:09:16.831Z,100.00
2019-04-11T02:14:22.651Z,100.00
2019-04-11T02:19:29.860Z,100.00
2019-04-11T02:24:56.315Z,100.00
2019-04-11T02:29:59.011Z,100.00
2019-04-11T02:35:05.140Z,100.00
2019-04-11T02:40:11.253Z,100.00
2019-04-11T02:45:27.129Z,100.00
2019-04-11T02:50:19.747Z,100.00
2019-04-11T02:55:25.324Z,100.00
2019-04-11T03:00:29.167Z,100.00
2019-04-11T03:05:34.453Z,100.00
2019-04-11T03:10:37.800Z,100.00
2019-04-11T03:15:59.509Z,100.00
2019-04-11T03:20:56.203Z,100.00
2019-04-11T03:25:54.409Z,100.00
2019-04-11T03:31:30.402Z,100.00
2019-04-11T03:36:54.156Z,100.00
2019-04-11T03:41:23.444Z,100.00
2019-04-11T03:46:33.908Z,100.00
2019-04-11T03:51:20.983Z,100.00
2019-04-11T03:56:24.496Z,100.00
2019-04-11T04:01:27.321Z,100.00
2019-04-11T04:06:31.038Z,100.00
2019-04-11T04:11:36.048Z,100.00
2019-04-11T04:17:01.608Z,100.00
2019-04-11T04:22:24.964Z,100.00
2019-04-11T04:27:28.117Z,100.00
2019-04-11T04:32:33.853Z,100.00
2019-04-11T04:37:36.659Z,100.00
2019-04-11T04:42:45.832Z,100.00
2019-04-11T04:47:51.456Z,100.00
2019-04-11T04:52:48.979Z,100.00
2019-04-11T04:57:53.272Z,100.00
2019-04-11T05:02:59.869Z,100.00
2019-04-11T05:08:02.997Z,100.00
2019-04-11T05:13:05.801Z,100.00
2019-04-11T05:18:08.908Z,100.00
2019-04-11T05:23:11.989Z,100.00
2019-04-11T05:28:14.072Z,100.00
2019-04-11T05:33:16.172Z,100.00
2019-04-11T05:38:18.896Z,100.00
2019-04-11T05:43:28.064Z,100.00
2019-04-11T05:48:36.791Z,100.00
2019-04-11T05:53:39.083Z,100.00
2019-04-11T05:58:44.294Z,100.00
2019-04-11T06:03:49.230Z,100.00
2019-04-11T06:08:54.234Z,100.00
2019-04-11T06:14:11.154Z,100.00
2019-04-11T06:19:33.466Z,100.00
2019-04-11T06:24:42.707Z,100.00
2019-04-11T06:30:05.515Z,100.00
2019-04-11T06:35:16.281Z,100.00
2019-04-11T06:40:24.895Z,100.00
2019-04-11T06:46:03.018Z,100.00
2019-04-11T06:51:30.609Z,100.00
2019-04-11T06:56:41.302Z,100.00
2019-04-11T07:01:45.405Z,100.00
2019-04-11T07:06:51.937Z,100.00
2019-04-11T07:11:59.306Z,100.00
2019-04-11T07:17:21.081Z,100.00
2019-04-11T07:22:41.559Z,100.00
2019-04-11T07:27:57.239Z,100.00
2019-04-11T07:33:13.758Z,100.00
2019-04-11T07:38:22.789Z,100.00
2019-04-11T07:43:35.439Z,100.00
2019-04-11T07:48:40.327Z,100.00
2019-04-11T07:53:45.990Z,100.00
2019-04-11T07:58:51.203Z,100.00
2019-04-11T08:04:15.878Z,100.00
2019-04-11T08:09:39.534Z,100.00
2019-04-11T08:15:04.833Z,100.00
2019-04-11T08:20:25.713Z,100.00
2019-04-11T08:25:59.925Z,100.00
2019-04-11T08:31:28.625Z,100.00
2019-04-11T08:36:49.037Z,100.00
2019-04-11T08:42:10.107Z,100.00
2019-04-11T08:47:14.168Z,100.00
2019-04-11T08:52:25.461Z,100.00
2019-04-11T08:57:40.964Z,90.07
2019-04-11T09:02:47.838Z,88.01
2019-04-11T09:08:10.010Z,89.32
2019-04-11T09:13:35.526Z,80.41
2019-04-11T09:18:38.475Z,78.50
2019-04-11T09:23:46.071Z,72.40
2019-04-11T09:28:51.566Z,75.17
2019-04-11T09:34:25.943Z,86.46
2019-04-11T09:39:59.645Z,77.05
2019-04-11T09:45:41.652Z,76.82
2019-04-11T09:51:07.533Z,73.28
2019-04-11T09:56:29.169Z,70.60
2019-04-11T10:02:00.301Z,72.23
2019-04-11T10:07:25.808Z,76.09
2019-04-11T10:12:46.537Z,76.28
2019-04-11T10:18:20.120Z,68.53
2019-04-11T10:23:25.005Z,67.68
2019-04-11T10:28:48.085Z,72.97
2019-04-11T10:34:09.753Z,68.30
2019-04-11T10:39:46.699Z,68.36
2019-04-11T10:45:18.463Z,68.27
2019-04-11T10:50:46.640Z,66.87
2019-04-11T10:56:08.876Z,73.22
2019-04-11T11:01:29.395Z,68.31
2019-04-11T11:06:31.687Z,74.65
2019-04-11T11:11:38.680Z,70.41
2019-04-11T11:16:50.730Z,66.75
2019-04-11T11:22:10.522Z,74.41
2019-04-11T11:27:13.796Z,65.98
2019-04-11T11:32:29.369Z,65.32
2019-04-11T11:38:03.903Z,65.36
2019-04-11T11:43:27.673Z,60.62
2019-04-11T11:48:36.612Z,60.62
2019-04-11T11:53:59.385Z,54.03
2019-04-11T11:59:23.493Z,49.54
2019-04-11T12:04:44.319Z,60.31
2019-04-11T12:10:04.424Z,56.76
2019-04-11T12:15:30.257Z,60.63
2019-04-11T12:20:41.360Z,57.40
2019-04-11T12:25:43.164Z,54.06
2019-04-11T12:30:48.198Z,58.73
2019-04-11T12:36:03.551Z,61.31
2019-04-11T12:41:17.203Z,63.85
2019-04-11T12:46:39.353Z,62.93
2019-04-11T12:51:59.842Z,63.32
2019-04-11T12:57:20.283Z,63.58
2019-04-11T13:02:41.903Z,64.93
2019-04-11T13:08:02.170Z,63.18
2019-04-11T13:13:24.422Z,59.07
2019-04-11T13:18:47.462Z,55.19
2019-04-11T13:24:09.235Z,56.57
2019-04-11T13:29:29.436Z,57.96
2019-04-11T13:34:32.381Z,57.19
2019-04-11T13:39:34.501Z,57.27
2019-04-11T13:44:38.584Z,57.27
2019-04-11T13:49:43.313Z,54.41
2019-04-11T13:55:07.917Z,54.41
2019-04-11T14:00:30.247Z,54.34
2019-04-11T14:05:36.555Z,54.55
2019-04-11T14:10:38.743Z,50.15
2019-04-11T14:15:42.497Z,56.00
2019-04-11T14:20:47.519Z,51.08
2019-04-11T14:26:00.747Z,56.71
2019-04-11T14:31:24.443Z,60.32
2019-04-11T14:42:15.919Z,56.29
2019-04-11T14:47:40.338Z,56.29
2019-04-11T14:52:50.956Z,60.24
2019-04-11T14:58:03.010Z,51.58
2019-04-11T15:03:33.822Z,51.58
2019-04-11T15:09:00.653Z,58.63
2019-04-11T15:14:12.261Z,58.02
2019-04-11T15:19:14.454Z,60.08
2019-04-11T15:24:17.656Z,58.58
2019-04-11T15:29:37.544Z,63.87
2019-04-11T15:34:53.915Z,61.15
2019-04-11T15:40:16.985Z,61.15
2019-04-11T15:45:30.432Z,57.62
2019-04-11T15:51:06.588Z,58.03
2019-04-11T15:56:24.497Z,58.03
2019-04-11T16:01:42.293Z,56.83
2019-04-11T16:07:08.155Z,57.61
2019-04-11T16:12:25.342Z,58.01
2019-04-11T16:17:44.715Z,58.35
2019-04-11T16:23:09.837Z,57.36
2019-04-11T16:28:43.321Z,60.91
2019-04-11T16:33:51.073Z,60.05
2019-04-11T16:39:13.407Z,65.78
2019-04-11T16:44:24.834Z,61.32
2019-04-11T16:49:25.970Z,65.31
2019-04-11T16:54:28.844Z,66.47
2019-04-11T16:59:35.280Z,65.21
2019-04-11T17:04:40.764Z,65.90
2019-04-11T17:09:46.856Z,67.78
2019-04-11T17:14:50.166Z,69.97
2019-04-11T17:19:52.263Z,65.43
2019-04-11T17:24:54.792Z,71.46
2019-04-11T17:29:56.920Z,65.62
2019-04-11T17:35:01.351Z,65.62
2019-04-11T17:40:06.988Z,65.25
2019-04-11T17:45:09.865Z,64.10
2019-04-11T17:50:12.780Z,65.00
2019-04-11T17:55:23.636Z,66.49
2019-04-11T18:00:29.934Z,69.43
2019-04-11T18:05:32.873Z,65.57
2019-04-11T18:10:34.878Z,63.61
2019-04-11T18:15:40.520Z,64.02
2019-04-11T18:20:42.579Z,68.77
2019-04-11T18:25:44.622Z,66.09
2019-04-11T18:30:46.651Z,68.55
2019-04-11T18:35:48.747Z,65.10
2019-04-11T18:40:50.798Z,63.10
2019-04-11T18:45:52.990Z,64.58
2019-04-11T18:50:55.141Z,66.14
2019-04-11T18:55:57.307Z,66.71
2019-04-11T19:01:04.358Z,67.76
2019-04-11T19:06:07.820Z,70.00
2019-04-11T19:11:09.845Z,77.78
2019-04-11T19:16:13.808Z,75.73
2019-04-11T19:21:21.028Z,74.78
2019-04-11T19:26:22.967Z,74.83
2019-04-11T19:31:28.174Z,78.17
2019-04-11T19:36:30.015Z,83.75
2019-04-11T19:41:32.016Z,91.98
2019-04-11T19:46:37.185Z,97.01
2019-04-11T19:51:44.674Z,99.42
2019-04-11T19:57:06.559Z,99.49
2019-04-11T20:02:08.609Z,100.00
2019-04-11T20:07:11.364Z,100.00
2019-04-11T20:12:16.139Z,100.00
2019-04-11T20:17:19.294Z,100.00
2019-04-11T20:22:22.075Z,100.00
2019-04-11T20:27:24.311Z,100.00
2019-04-11T20:32:30.560Z,100.00
2019-04-11T20:37:39.209Z,100.00
2019-04-11T20:42:42.813Z,100.00
2019-04-11T20:47:46.764Z,100.00
2019-04-11T20:52:48.844Z,100.00
2019-04-11T20:57:50.851Z,100.00
2019-04-11T21:02:52.904Z,100.00
2019-04-11T21:07:54.891Z,100.00
2019-04-11T21:12:57.535Z,100.00
2019-04-11T21:17:59.781Z,100.00
2019-04-11T21:23:02.068Z,100.00
2019-04-11T21:28:04.076Z,100.00
2019-04-11T21:33:08.304Z,100.00
2019-04-11T21:38:10.328Z,100.00
2019-04-11T21:43:12.781Z,100.00
2019-04-11T21:48:14.912Z,100.00
2019-04-11T21:53:16.977Z,100.00
2019-04-11T21:58:20.105Z,100.00
2019-04-11T22:03:24.230Z,100.00
2019-04-11T22:08:26.866Z,100.00
2019-04-11T22:13:29.349Z,100.00
2019-04-11T22:18:31.393Z,100.00
2019-04-11T22:23:33.458Z,100.00
2019-04-11T22:28:35.702Z,100.00
2019-04-11T22:33:47.705Z,100.00
2019-04-11T22:38:54.829Z,100.00
2019-04-11T22:43:57.480Z,100.00
2019-04-11T22:49:00.769Z,100.00
2019-04-11T22:54:03.014Z,100.00
2019-04-11T22:59:13.561Z,100.00
2019-04-11T23:04:16.624Z,100.00
2019-04-11T23:09:20.117Z,100.00
2019-04-11T23:14:25.683Z,100.00
2019-04-11T23:19:29.491Z,100.00
2019-04-11T23:24:31.608Z,100.00
2019-04-11T23:29:33.600Z,100.00
2019-04-11T23:34:35.894Z,100.00
2019-04-11T23:39:39.816Z,100.00
2019-04-11T23:44:43.941Z,100.00
2019-04-11T23:49:55.070Z,100.00
2019-04-11T23:55:05.013Z,100.00
